Time;durP1;ratioP1;P1;durP2;ratioP2;P2;SDS_P1;SDS_P2;PMS_P1;PMS_P2;Temp;Humidity;BMP_temperature;BMP_pressure;BME280_temperature;BME280_humidity;BME280_pressure;Samples;Min_cycle;Max_cycle;Signal;HPM_P1;HPM_P2
2022/03/22 04:58:06;;;;;;;30.65;19.67;;;;;;;0.17;64.87;102533.78;5691220;28;20140;-88
2022/03/22 05:01:09;;;;;;;34.97;20.58;;;;;;;0.19;64.46;102534.59;5272597;33;34024;-88
2022/03/22 05:04:12;;;;;;;30.90;19.37;;;;;;;0.19;64.50;102539.88;5272483;33;33719;-88
2022/03/22 05:07:15;;;;;;;28.80;18.80;;;;;;;0.16;63.95;102540.00;5272245;33;34502;-88
2022/03/22 05:10:18;;;;;;;31.95;20.25;;;;;;;0.21;64.03;102544.22;5272412;33;34059;-86
2022/03/22 05:13:21;;;;;;;30.23;19.98;;;;;;;0.39;63.12;102544.44;5273187;33;34036;-86
2022/03/22 05:16:24;;;;;;;31.55;20.20;;;;;;;0.49;62.88;102540.50;5271577;33;33523;-86
2022/03/22 05:19:27;;;;;;;33.55;20.08;;;;;;;0.56;62.67;102535.84;5273619;33;33987;-88
2022/03/22 05:22:30;;;;;;;31.70;20.27;;;;;;;0.67;61.94;102541.56;5274537;33;33738;-87
2022/03/22 05:25:33;;;;;;;28.95;20.23;;;;;;;0.79;61.54;102537.56;5276984;33;33879;-87
2022/03/22 05:28:37;;;;;;;31.83;20.65;;;;;;;0.83;61.88;102544.47;5279973;33;33970;-87
2022/03/22 05:31:40;;;;;;;28.48;19.23;;;;;;;0.90;62.40;102545.94;5285843;33;34468;-87
2022/03/22 05:34:43;;;;;;;29.67;19.98;;;;;;;1.17;60.24;102549.28;5286000;33;34253;-86
2022/03/22 05:37:51;;;;;;;27.52;18.92;;;;;;;1.33;58.82;102537.06;5284124;33;35079;-87
2022/03/22 05:41:02;;;;;;;30.50;18.90;;;;;;;1.46;57.45;102544.50;5278839;33;34204;-87
2022/03/22 05:44:05;;;;;;;29.12;18.90;;;;;;;1.62;56.63;102550.03;5275655;33;34101;-87
2022/03/22 05:47:10;;;;;;;32.15;19.70;;;;;;;1.78;55.32;102551.97;5279604;33;33798;-88
2022/03/22 05:50:14;;;;;;;32.67;20.15;;;;;;;1.98;54.04;102542.22;5278974;33;34359;-88
2022/03/22 05:53:21;;;;;;;34.90;19.05;;;;;;;2.09;53.96;102547.06;5278782;33;34523;-87
2022/03/22 05:56:24;;;;;;;35.90;21.52;;;;;;;2.35;53.75;102545.88;5277024;33;34811;-88
2022/03/22 05:59:27;;;;;;;36.50;20.25;;;;;;;2.51;53.02;102557.50;5277186;33;34840;-88
2022/03/22 06:02:30;;;;;;;36.97;19.33;;;;;;;2.63;52.43;102558.72;5278593;33;34434;-88
2022/03/22 06:05:33;;;;;;;32.15;18.15;;;;;;;2.86;50.75;102562.94;5280844;33;33966;-88
2022/03/22 06:08:36;;;;;;;35.20;19.75;;;;;;;3.05;49.81;102557.59;5275498;33;33782;-88
2022/03/22 06:11:39;;;;;;;28.27;19.30;;;;;;;3.34;48.58;102557.00;5274791;33;33821;-88
2022/03/22 06:14:42;;;;;;;35.22;20.58;;;;;;;3.40;48.67;102550.50;5273527;33;33663;-88
2022/03/22 06:17:49;;;;;;;31.17;19.02;;;;;;;3.59;47.67;102548.63;5273691;33;33982;-88
2022/03/22 06:20:52;;;;;;;29.00;18.08;;;;;;;3.66;46.44;102562.50;5274689;33;34689;-88
2022/03/22 06:23:55;;;;;;;33.30;18.30;;;;;;;3.76;46.61;102554.88;5274455;33;34710;-88
2022/03/22 06:26:58;;;;;;;30.80;18.52;;;;;;;3.94;45.61;102563.72;5273296;33;34085;-88
2022/03/22 06:30:04;;;;;;;27.35;18.05;;;;;;;4.00;45.04;102558.91;5273430;33;33810;-87
2022/03/22 06:33:17;;;;;;;28.10;18.98;;;;;;;4.25;44.79;102562.94;5272881;33;33708;-87
2022/03/22 06:36:20;;;;;;;30.08;17.85;;;;;;;4.26;44.48;102565.50;5274858;33;34694;-87
2022/03/22 06:39:23;;;;;;;26.58;17.08;;;;;;;4.42;44.46;102562.88;5265623;33;34260;-87
2022/03/22 06:42:26;;;;;;;26.30;15.13;;;;;;;4.59;43.54;102572.59;5272150;33;34428;-87
2022/03/22 06:45:35;;;;;;;29.98;14.70;;;;;;;4.84;43.54;102563.25;5269265;33;35283;-87
2022/03/22 06:48:38;;;;;;;31.70;14.48;;;;;;;5.01;42.29;102565.81;5271515;33;34820;-87
2022/03/22 06:51:41;;;;;;;30.92;14.70;;;;;;;5.22;42.25;102567.22;5269024;33;34176;-87
2022/03/22 06:54:44;;;;;;;29.80;14.00;;;;;;;5.48;42.12;102566.66;5273297;33;34160;-88
2022/03/22 06:57:46;;;;;;;30.17;13.85;;;;;;;5.78;41.33;102561.28;5275505;33;34959;-87
2022/03/22 07:00:49;;;;;;;28.65;14.23;;;;;;;5.98;40.75;102562.78;5273654;33;34191;-88
2022/03/22 07:03:53;;;;;;;25.45;13.77;;;;;;;6.20;41.09;102565.84;5268401;33;34040;-87
2022/03/22 07:06:56;;;;;;;26.00;13.90;;;;;;;6.40;39.93;102564.59;5273594;33;34401;-87
2022/03/22 07:09:59;;;;;;;27.87;13.38;;;;;;;6.67;39.67;102569.13;5273285;33;35780;-88
2022/03/22 07:13:06;;;;;;;27.48;14.27;;;;;;;6.74;38.80;102560.62;5272295;33;34134;-88
2022/03/22 07:16:08;;;;;;;32.20;15.45;;;;;;;6.97;38.15;102556.44;5274644;33;34632;-87
2022/03/22 07:19:12;;;;;;;28.12;15.30;;;;;;;7.19;38.34;102555.00;5274296;33;34080;-86
2022/03/22 07:22:15;;;;;;;30.90;14.77;;;;;;;7.30;37.91;102557.84;5273325;33;33987;-88
2022/03/22 07:25:18;;;;;;;31.20;15.65;;;;;;;7.38;37.84;102552.84;5273614;33;34390;-88
2022/03/22 07:28:21;;;;;;;32.70;18.52;;;;;;;7.57;37.55;102551.56;5272757;33;34243;-91
2022/03/22 07:31:24;;;;;;;27.92;16.02;;;;;;;7.78;37.48;102562.63;5274105;33;34549;-91
2022/03/22 07:34:27;;;;;;;29.02;16.45;;;;;;;8.04;36.46;102558.16;5275329;33;34330;-92
2022/03/22 07:37:32;;;;;;;32.10;16.48;;;;;;;8.38;35.28;102557.50;5274836;33;34076;-91
2022/03/22 07:40:35;;;;;;;29.60;14.55;;;;;;;8.68;34.69;102569.69;5280723;33;33675;-87
2022/03/22 07:43:38;;;;;;;28.05;15.20;;;;;;;8.69;32.73;102566.03;5272412;33;33640;-87
2022/03/22 07:46:42;;;;;;;25.83;15.25;;;;;;;8.66;32.58;102560.00;5274941;33;33871;-88
2022/03/22 07:53:07;;;;;;;26.40;15.65;;;;;;;9.31;31.09;102568.56;5273814;33;32386;-87
2022/03/22 07:56:13;;;;;;;27.40;15.85;;;;;;;9.72;31.27;102561.87;5278093;33;34188;-87
2022/03/22 07:59:16;;;;;;;27.17;13.90;;;;;;;9.92;30.94;102562.16;5272180;33;34288;-87
2022/03/22 08:02:19;;;;;;;34.38;15.93;;;;;;;9.94;30.64;102562.88;5270381;33;34987;-87
2022/03/22 08:05:24;;;;;;;28.62;14.23;;;;;;;9.97;30.90;102559.94;5271665;33;34300;-87
2022/03/22 08:08:26;;;;;;;27.10;15.60;;;;;;;10.29;30.06;102557.44;5265187;33;33898;-87
2022/03/22 08:11:36;;;;;;;26.08;15.57;;;;;;;10.43;29.65;102553.62;5272516;33;34156;-87
2022/03/22 08:14:39;;;;;;;23.62;15.23;;;;;;;10.66;29.49;102552.63;5269967;33;34533;-87
2022/03/22 08:17:42;;;;;;;26.58;16.80;;;;;;;10.85;29.06;102553.81;5270187;33;33799;-87
2022/03/22 08:20:45;;;;;;;28.23;16.15;;;;;;;11.09;28.37;102549.09;5272820;33;34123;-87
2022/03/22 08:23:48;;;;;;;26.98;15.45;;;;;;;11.18;28.22;102541.22;5270045;33;33690;-87
2022/03/22 08:26:51;;;;;;;26.55;16.02;;;;;;;11.32;27.82;102535.53;5265954;33;35772;-87
2022/03/22 08:29:54;;;;;;;27.77;15.15;;;;;;;11.67;27.08;102531.66;5267392;33;34405;-88
2022/03/22 08:32:58;;;;;;;27.83;16.12;;;;;;;11.62;26.81;102540.16;5269844;33;34114;-87
2022/03/22 08:36:01;;;;;;;25.10;15.80;;;;;;;11.72;26.80;102526.72;5256362;33;250730;-88
2022/03/22 08:39:05;;;;;;;24.95;15.75;;;;;;;12.00;26.27;102533.31;5268401;33;34696;-87
2022/03/22 08:42:08;;;;;;;26.77;15.25;;;;;;;12.03;25.79;102527.66;5268954;33;35557;-87
2022/03/22 08:45:23;;;;;;;24.73;15.52;;;;;;;12.13;25.75;102527.69;5272886;33;34846;-86
2022/03/22 08:53:33;;;;;;;24.70;15.20;;;;;;;13.39;24.23;102517.13;5608631;31;137138;-88
2022/03/22 08:56:37;;;;;;;25.23;14.87;;;;;;;13.39;24.23;102517.13;5593350;31;34230;-86
2022/03/22 08:59:40;;;;;;;29.83;16.98;;;;;;;13.03;24.81;102514.13;5591226;31;33715;-86
2022/03/22 09:02:44;;;;;;;24.42;14.85;;;;;;;13.07;24.27;102514.69;5587250;31;33589;-86
2022/03/22 09:09:10;;;;;;;25.85;15.85;;;;;;;13.33;24.00;102512.28;5580188;31;34448;-86
2022/03/22 09:12:13;;;;;;;36.53;23.33;;;;;;;13.16;23.95;102506.59;5578582;31;34374;-85
2022/03/22 09:15:27;;;;;;;24.10;15.90;;;;;;;13.42;23.91;102499.75;5593158;32;33298;-87
2022/03/22 09:18:30;;;;;;;24.95;16.17;;;;;;;13.78;23.65;102500.84;5600748;32;35140;-88
2022/03/22 09:21:35;;;;;;;23.80;13.73;;;;;;;13.90;23.00;102490.69;5601168;31;35342;-87
2022/03/22 09:24:43;;;;;;;;;;;;;;;13.73;23.26;102495.00;5577541;31;34302;-87
2022/03/22 09:27:46;;;;;;;26.25;14.27;;;;;;;14.03;23.54;102492.03;5586133;31;34121;-87
2022/03/22 09:30:49;;;;;;;25.17;15.90;;;;;;;14.15;23.39;102487.28;5577392;32;34314;-87
2022/03/22 09:33:53;;;;;;;22.77;13.43;;;;;;;14.07;22.67;102481.78;5574906;31;34181;-90
2022/03/22 09:36:55;;;;;;;24.12;12.63;;;;;;;13.98;22.27;102485.34;5580568;31;34045;-92
2022/03/22 09:39:58;;;;;;;45.17;16.40;;;;;;;14.15;22.85;102476.44;5579671;31;35359;-92
2022/03/22 09:43:01;;;;;;;26.05;13.55;;;;;;;14.36;22.55;102481.63;5580002;31;35282;-90
2022/03/22 09:46:07;;;;;;;28.80;14.73;;;;;;;14.59;22.42;102481.22;5582756;31;33808;-87
2022/03/22 09:49:10;;;;;;;23.92;15.05;;;;;;;14.76;21.68;102485.81;5583893;31;34010;-87
2022/03/22 09:52:15;;;;;;;24.05;14.43;;;;;;;14.59;21.69;102476.66;5594250;32;34463;-88
2022/03/22 09:55:17;;;;;;;22.17;14.18;;;;;;;14.58;21.82;102479.53;5595456;31;35274;-87
2022/03/22 09:58:20;;;;;;;28.42;15.75;;;;;;;14.37;21.96;102472.50;5600273;31;34321;-87
2022/03/22 10:01:23;;;;;;;23.27;14.48;;;;;;;14.71;21.95;102471.84;5597650;31;36316;-88
2022/03/22 10:04:36;;;;;;;28.27;15.43;;;;;;;14.73;21.59;102467.16;5568248;31;33578;-87
2022/03/22 10:07:39;;;;;;;24.77;14.65;;;;;;;14.81;21.73;102459.09;5569921;32;33548;-88
2022/03/22 10:10:58;;;;;;;37.25;15.05;;;;;;;15.04;21.97;102451.34;5609729;26;34086;-87
2022/03/22 10:14:01;;;;;;;26.83;15.87;;;;;;;15.53;22.42;102446.28;5529746;32;33545;-87
2022/03/22 10:17:19;;;;;;;22.10;12.77;;;;;;;15.95;21.18;102440.09;5531990;32;33895;-87
2022/03/22 10:20:26;;;;;;;21.67;13.73;;;;;;;15.98;20.30;102431.62;5526416;32;33563;-87
2022/03/22 10:23:32;;;;;;;31.98;14.87;;;;;;;15.87;20.52;102442.75;5525943;32;33731;-87
2022/03/22 10:26:35;;;;;;;29.75;14.57;;;;;;;16.08;20.41;102435.03;5512654;32;33362;-87
2022/03/22 10:29:41;;;;;;;22.90;14.50;;;;;;;16.19;19.74;102433.91;5524833;32;34063;-88
2022/03/22 10:32:50;;;;;;;24.98;13.13;;;;;;;16.15;19.91;102429.81;5531138;32;33415;-87
2022/03/22 10:35:53;;;;;;;25.10;13.70;;;;;;;16.50;19.98;102426.00;5517643;32;33640;-87
2022/03/22 10:39:01;;;;;;;24.87;12.80;;;;;;;16.48;19.63;102421.75;5519300;32;34515;-87
2022/03/22 10:42:06;;;;;;;21.90;14.07;;;;;;;16.59;19.11;102413.28;5526422;32;35147;-87
2022/03/22 10:45:09;;;;;;;25.35;13.40;;;;;;;16.59;19.44;102417.88;5519265;32;33777;-87
2022/03/22 10:48:33;;;;;;;23.38;12.45;;;;;;;16.71;18.87;102413.81;5528465;32;34884;-87
2022/03/22 10:51:44;;;;;;;21.90;11.90;;;;;;;16.82;19.13;102408.06;5523538;32;35297;-89
2022/03/22 10:54:47;;;;;;;19.65;12.05;;;;;;;16.68;19.04;102408.72;5526766;32;35343;-91
2022/03/22 10:57:56;;;;;;;26.02;13.25;;;;;;;16.95;19.09;102405.69;5523937;32;35185;-88
2022/03/22 11:01:02;;;;;;;22.13;12.77;;;;;;;17.27;18.32;102392.22;5518373;32;34640;-88
2022/03/22 11:04:06;;;;;;;20.83;12.32;;;;;;;17.07;18.52;102387.13;5519450;32;33910;-88
2022/03/22 11:07:11;;;;;;;19.98;11.18;;;;;;;17.20;18.41;102387.47;5523668;32;35205;-88
2022/03/22 11:10:17;;;;;;;19.75;11.55;;;;;;;17.33;18.39;102389.66;5526821;32;34034;-88
2022/03/22 11:13:23;;;;;;;19.85;11.40;;;;;;;17.42;17.93;102377.72;5517572;32;33615;-88
2022/03/22 11:16:28;;;;;;;20.23;10.88;;;;;;;17.71;18.01;102365.37;5529039;32;34096;-88
2022/03/22 11:19:31;;;;;;;19.50;11.75;;;;;;;18.07;17.39;102363.00;5514769;32;33519;-88
2022/03/22 11:22:34;;;;;;;17.80;10.07;;;;;;;17.87;17.10;102362.63;5520900;32;33344;-88
2022/03/22 11:25:38;;;;;;;17.92;10.68;;;;;;;18.32;16.60;102357.41;5514839;32;33611;-88
2022/03/22 11:28:41;;;;;;;17.37;10.85;;;;;;;18.62;16.80;102354.81;5512578;32;34494;-88
2022/03/22 11:34:09;;;;;;;17.33;9.85;;;;;;;18.93;16.22;102347.41;5526710;32;33965;-88
2022/03/22 11:35:14;;;;;;;18.10;9.68;;;;;;;19.58;15.55;102345.00;5530355;32;34228;-88
2022/03/22 11:38:44;;;;;;;23.25;10.32;;;;;;;20.02;15.32;102336.75;5520537;32;34888;-87
2022/03/22 11:45:09;;;;;;;19.25;10.30;;;;;;;21.29;14.90;102334.16;5518954;32;34303;-87
2022/03/22 11:48:12;;;;;;;14.38;9.45;;;;;;;21.93;14.19;102334.91;5516672;32;34217;-87
2022/03/22 11:51:23;;;;;;;19.62;11.73;;;;;;;22.15;14.01;102328.22;5515836;32;33780;-87
2022/03/22 11:54:27;;;;;;;14.87;8.77;;;;;;;23.10;13.43;102322.63;5517266;32;35127;-88
2022/03/22 11:57:43;;;;;;;18.15;10.13;;;;;;;23.68;12.99;102311.66;5522535;32;32750;-88
2022/03/22 12:00:55;;;;;;;17.87;9.80;;;;;;;24.39;12.43;102307.06;5523889;32;33585;-88
2022/03/22 12:03:59;;;;;;;23.30;11.38;;;;;;;24.59;12.53;102293.16;5524771;32;33973;-87
2022/03/22 12:07:10;;;;;;;24.35;11.48;;;;;;;24.55;12.52;102297.44;5527659;32;32668;-88
2022/03/22 12:10:17;;;;;;;14.68;10.35;;;;;;;25.23;12.26;102293.84;5539120;26;34072;-88
2022/03/22 12:13:20;;;;;;;18.87;10.35;;;;;;;26.16;11.62;102292.66;5541793;32;33978;-88
2022/03/22 12:16:27;;;;;;;14.00;9.65;;;;;;;27.57;11.28;102278.91;5553791;26;34665;-87
2022/03/22 12:19:32;;;;;;;15.88;8.93;;;;;;;28.32;10.61;102271.47;5529557;32;34408;-88
2022/03/22 12:22:46;;;;;;;12.70;9.10;;;;;;;28.11;10.60;102261.94;5523737;32;34187;-88
2022/03/22 12:25:49;;;;;;;14.13;8.82;;;;;;;28.17;10.67;102256.25;5522899;32;33727;-88
2022/03/22 12:28:53;;;;;;;12.85;8.73;;;;;;;27.15;10.74;102254.22;5529081;32;33798;-88
2022/03/22 12:32:06;;;;;;;15.02;9.25;;;;;;;28.27;10.41;102253.66;5527484;32;34456;-88
2022/03/22 12:35:12;;;;;;;12.02;8.32;;;;;;;29.00;10.25;102242.63;5518871;32;34322;-88
2022/03/22 12:38:18;;;;;;;19.65;9.90;;;;;;;29.86;9.37;102238.41;5523397;32;33881;-88
2022/03/22 12:41:21;;;;;;;12.07;9.30;;;;;;;29.92;9.27;102234.56;5528205;32;34448;-88
2022/03/22 12:44:25;;;;;;;15.18;9.35;;;;;;;29.54;9.61;102228.91;5526642;32;34043;-88
2022/03/22 12:47:28;;;;;;;11.93;8.68;;;;;;;29.98;9.30;102231.59;5526650;32;33906;-88
2022/03/22 12:50:31;;;;;;;14.25;9.20;;;;;;;29.27;9.66;102220.53;5524332;32;33761;-88
2022/03/22 12:53:37;;;;;;;14.38;9.15;;;;;;;30.10;9.16;102220.31;5528387;32;33793;-88
2022/03/22 12:56:45;;;;;;;13.50;8.60;;;;;;;30.39;8.96;102220.88;5528930;32;33571;-88
2022/03/22 13:00:00;;;;;;;12.82;8.77;;;;;;;30.38;9.18;102213.63;5570076;26;33730;-88
2022/03/22 13:03:16;;;;;;;14.00;8.80;;;;;;;29.50;9.35;102207.47;5556868;32;33527;-87
2022/03/22 13:06:21;;;;;;;12.95;8.57;;;;;;;30.31;9.00;102190.78;5540159;32;35296;-91
2022/03/22 13:12:50;;;;;;;9.73;7.45;;;;;;;31.66;8.46;102174.47;5551105;32;33809;-88
2022/03/22 13:15:53;;;;;;;10.65;7.75;;;;;;;32.79;7.73;102172.44;5546204;32;34137;-88
2022/03/22 13:19:00;;;;;;;12.07;7.45;;;;;;;32.52;7.85;102173.63;5553014;32;33897;-88
2022/03/22 13:22:03;;;;;;;11.10;7.50;;;;;;;33.56;7.90;102167.38;5538187;32;33435;-88
2022/03/22 13:25:09;;;;;;;11.10;7.50;;;;;;;33.08;7.62;102173.44;5542363;32;34020;-88
2022/03/22 13:28:15;;;;;;;10.77;7.72;;;;;;;33.32;7.44;102161.63;5531145;32;33799;-88
2022/03/22 13:31:26;;;;;;;9.40;6.87;;;;;;;35.28;7.31;102160.31;5540172;32;34635;-88
2022/03/22 13:34:32;;;;;;;9.32;6.57;;;;;;;35.33;6.61;102150.97;5530109;32;34095;-88
2022/03/22 13:37:48;;;;;;;9.00;6.47;;;;;;;34.80;6.52;102153.91;5535346;32;33891;-88
2022/03/22 13:40:57;;;;;;;9.40;6.68;;;;;;;35.30;6.62;102154.38;5532217;32;35068;-88
2022/03/22 13:44:06;;;;;;;10.63;6.37;;;;;;;34.93;6.50;102142.81;5538036;32;33828;-87
2022/03/22 13:47:09;;;;;;;6.50;5.72;;;;;;;35.58;6.51;102149.78;5549671;32;33660;-88
2022/03/22 13:50:14;;;;;;;8.93;6.20;;;;;;;36.15;5.98;102141.25;5550827;32;33607;-88
2022/03/22 13:53:25;;;;;;;11.02;6.68;;;;;;;35.63;6.26;102144.12;5535707;32;33618;-87
2022/03/22 13:56:29;;;;;;;8.07;5.95;;;;;;;36.19;6.03;102140.34;5537317;32;33722;-87
2022/03/22 13:59:39;;;;;;;10.57;6.45;;;;;;;33.43;6.96;102132.50;5537287;32;33733;-87
2022/03/22 14:02:50;;;;;;;9.10;6.30;;;;;;;31.70;7.73;102128.22;5539509;32;34382;-87
2022/03/22 14:05:54;;;;;;;11.12;6.25;;;;;;;31.24;8.01;102122.56;5541576;32;34473;-90
2022/03/22 14:08:57;;;;;;;9.43;6.37;;;;;;;31.99;7.82;102118.22;5549544;32;35297;-90
2022/03/22 14:12:03;;;;;;;8.48;6.43;;;;;;;30.33;8.31;102123.81;5555475;32;34857;-91
2022/03/22 14:15:07;;;;;;;9.15;6.45;;;;;;;29.97;8.89;102115.19;5541386;32;34768;-89
2022/03/22 14:18:10;;;;;;;13.57;6.22;;;;;;;30.53;8.57;102109.19;5544402;32;34125;-89
2022/03/22 14:21:13;;;;;;;9.18;6.20;;;;;;;31.66;8.04;102100.09;5544029;32;33726;-88
2022/03/22 14:24:16;;;;;;;7.22;5.68;;;;;;;32.22;7.86;102097.28;5547152;32;34090;-88
2022/03/22 14:27:19;;;;;;;10.88;6.22;;;;;;;32.54;7.33;102090.53;5537054;32;32265;-88
2022/03/22 14:30:28;;;;;;;10.68;5.93;;;;;;;30.34;8.43;102087.44;5537907;32;35207;-88
2022/03/22 14:33:32;;;;;;;6.37;5.60;;;;;;;29.27;8.93;102083.75;5546738;32;33813;-86
2022/03/22 14:36:35;;;;;;;12.65;6.43;;;;;;;29.21;8.69;102088.41;5539048;32;34376;-86
2022/03/22 14:39:38;;;;;;;13.13;6.10;;;;;;;28.26;9.30;102083.03;5539438;32;33879;-86
2022/03/22 14:42:41;;;;;;;9.98;6.22;;;;;;;25.61;10.92;102075.69;5540848;32;33738;-86
2022/03/22 14:45:50;;;;;;;13.65;6.00;;;;;;;24.03;12.17;102076.59;5540980;32;34520;-86
2022/03/22 14:48:54;;;;;;;9.43;6.25;;;;;;;22.23;12.89;102066.56;5545428;32;33910;-86
2022/03/22 14:55:19;;;;;;;9.63;6.40;;;;;;;20.14;14.32;102069.12;5544383;32;33820;-85
2022/03/22 15:01:44;;;;;;;9.63;6.53;;;;;;;19.12;15.15;102055.78;5548635;32;34507;-86
2022/03/22 15:04:53;;;;;;;;;;;;;;;18.81;15.20;102054.19;5539056;32;33570;-88
2022/03/22 15:07:56;;;;;;;8.77;5.87;;;;;;;18.45;15.53;102046.72;5544517;32;34211;-87
2022/03/22 15:10:59;;;;;;;10.52;6.60;;;;;;;18.46;15.74;102047.59;5552419;32;33809;-88
2022/03/22 15:14:03;;;;;;;11.12;6.12;;;;;;;18.16;16.26;102044.84;5542004;32;35043;-88
2022/03/22 15:17:05;;;;;;;9.52;6.62;;;;;;;17.89;16.26;102049.91;5549003;32;33918;-88
2022/03/22 15:20:12;;;;;;;12.70;7.20;;;;;;;17.84;16.65;102044.19;5552378;32;33887;-87
2022/03/22 15:23:16;;;;;;;11.65;6.03;;;;;;;17.57;16.87;102040.13;5550391;32;34350;-88
2022/03/22 15:26:21;;;;;;;10.68;5.95;;;;;;;17.67;16.62;102039.87;5535149;32;32454;-87
2022/03/22 15:29:24;;;;;;;8.55;6.32;;;;;;;17.57;16.58;102033.81;5539962;32;32396;-87
2022/03/22 15:32:28;;;;;;;10.75;6.80;;;;;;;17.39;16.68;102035.00;5537808;32;33906;-87
2022/03/22 15:35:31;;;;;;;10.70;6.75;;;;;;;17.21;17.16;102034.47;5554051;32;35154;-87
2022/03/22 15:38:34;;;;;;;11.82;7.03;;;;;;;17.12;17.41;102030.94;5553070;32;34042;-90
2022/03/22 15:41:39;;;;;;;12.25;6.90;;;;;;;17.04;17.50;102031.00;5549964;32;34343;-90
2022/03/22 15:44:44;;;;;;;10.50;6.90;;;;;;;16.96;17.68;102034.63;5546451;32;35163;-91
2022/03/22 15:47:50;;;;;;;10.18;6.82;;;;;;;17.02;17.27;102040.34;5552202;32;33760;-88
2022/03/22 15:50:54;;;;;;;11.50;6.45;;;;;;;17.04;17.64;102032.88;5536873;32;34436;-87
2022/03/22 15:53:58;;;;;;;11.25;7.15;;;;;;;16.94;17.71;102030.41;5535798;32;33712;-88
2022/03/22 15:57:02;;;;;;;11.82;6.93;;;;;;;16.95;17.48;102030.19;5535504;32;34575;-88
2022/03/22 16:00:08;;;;;;;10.93;6.60;;;;;;;16.88;17.56;102029.22;5531197;32;33994;-87
2022/03/22 16:03:11;;;;;;;10.23;6.68;;;;;;;16.90;17.54;102029.03;5544588;32;32589;-87
2022/03/22 16:06:15;;;;;;;14.98;6.62;;;;;;;16.78;17.87;102026.72;5543631;32;34111;-88
2022/03/22 16:09:27;;;;;;;10.15;5.82;;;;;;;16.74;18.02;102021.81;5538690;32;33828;-88
2022/03/22 16:12:31;;;;;;;9.82;6.20;;;;;;;16.71;18.13;102023.00;5547054;32;34249;-87
2022/03/22 16:15:34;;;;;;;11.18;6.25;;;;;;;16.63;18.47;102019.47;5548341;32;33501;-88
2022/03/22 16:18:37;;;;;;;11.65;6.28;;;;;;;16.51;18.48;102019.00;5551978;32;34101;-87
2022/03/22 16:21:40;;;;;;;11.45;6.68;;;;;;;16.28;18.71;102032.53;5541431;32;34181;-87
2022/03/22 16:24:43;;;;;;;9.25;6.40;;;;;;;16.29;18.69;102026.06;5545793;32;33876;-87
2022/03/22 16:27:49;;;;;;;12.50;6.30;;;;;;;16.17;19.29;102024.75;5549742;32;34857;-87
2022/03/22 16:30:53;;;;;;;12.15;6.93;;;;;;;16.12;18.86;102017.13;5548604;32;34012;-87
2022/03/22 16:37:17;;;;;;;8.98;6.40;;;;;;;15.85;19.28;102012.91;5544958;32;34620;-87
2022/03/22 16:40:20;;;;;;;9.50;6.10;;;;;;;15.65;19.57;102015.16;5542642;32;34099;-87
2022/03/22 16:43:23;;;;;;;8.60;6.25;;;;;;;15.43;19.93;102011.25;5535483;32;34571;-87
2022/03/22 16:46:29;;;;;;;9.02;6.18;;;;;;;15.29;20.08;102007.34;5535961;32;34191;-87
2022/03/22 16:49:36;;;;;;;11.00;5.95;;;;;;;15.04;20.93;102002.91;5547896;32;33874;-87
2022/03/22 16:52:39;;;;;;;12.30;7.03;;;;;;;14.75;21.10;102006.91;5548835;32;33769;-87
2022/03/22 16:55:42;;;;;;;14.77;6.43;;;;;;;14.52;21.27;102012.94;5548944;32;34666;-87
